IGO171 VOMM-VOBL
Flight info
| Callsign | IGO171 |
|---|---|
| Flight time | 0h 31m |
| Altitude | 22000 |
| Route | MMV W117 XIVIL XIVIL7E |
| Aircraft | A20N/M-SDE2E3FGHIRWXY/LB1 |
Departure
| Time | 2026-04-28 12:37 |
|---|---|
| Airport | Chennai International Airport (VOMM) |
Arrival
| Time | 2026-04-28 13:09 |
|---|---|
| Airport | Kempegowda International Airport Bengaluru (VOBL) |
| Time | Latitude | Longitude | Altitude | Speed | Heading |
|---|---|---|---|---|---|
| 2026-04-28 12:13 | 12.98408 | 80.16494 | 56 ft | 0 kts | 163° |
| 2026-04-28 12:25 | 12.98410 | 80.16494 | 55 ft | 0 kts | 163° |
| 2026-04-28 12:25 | 12.98415 | 80.16492 | 50 ft | 1 kts | 163° |
| 2026-04-28 12:26 | 12.98423 | 80.16490 | 47 ft | 1 kts | 163° |
| 2026-04-28 12:26 | 12.98430 | 80.16488 | 52 ft | 1 kts | 163° |
| 2026-04-28 12:26 | 12.98437 | 80.16485 | 52 ft | 1 kts | 163° |
| 2026-04-28 12:26 | 12.98447 | 80.16482 | 50 ft | 2 kts | 161° |
| 2026-04-28 12:27 | 12.98461 | 80.16477 | 50 ft | 2 kts | 155° |
| 2026-04-28 12:27 | 12.98477 | 80.16470 | 48 ft | 4 kts | 131° |
| 2026-04-28 12:27 | 12.98481 | 80.16459 | 50 ft | 0 kts | 74° |
| 2026-04-28 12:28 | 12.98485 | 80.16466 | 49 ft | 4 kts | 61° |
| 2026-04-28 12:28 | 12.98514 | 80.16467 | 53 ft | 7 kts | 344° |
| 2026-04-28 12:28 | 12.98592 | 80.16444 | 53 ft | 1 kts | 345° |
| 2026-04-28 12:29 | 12.98533 | 80.16461 | 52 ft | 8 kts | 357° |
| 2026-04-28 12:29 | 12.98513 | 80.16458 | 52 ft | 3 kts | 84° |
| 2026-04-28 12:29 | 12.98489 | 80.16486 | 51 ft | 8 kts | 99° |
| 2026-04-28 12:30 | 12.98530 | 80.16582 | 52 ft | 22 kts | 72° |
| 2026-04-28 12:30 | 12.98593 | 80.16754 | 53 ft | 26 kts | 54° |
| 2026-04-28 12:30 | 12.98663 | 80.16752 | 55 ft | 14 kts | 341° |
| 2026-04-28 12:30 | 12.98761 | 80.16757 | 52 ft | 16 kts | 55° |
| 2026-04-28 12:31 | 12.98824 | 80.16904 | 51 ft | 32 kts | 71° |
| 2026-04-28 12:31 | 12.98921 | 80.17171 | 53 ft | 44 kts | 67° |
| 2026-04-28 12:31 | 12.99043 | 80.17458 | 55 ft | 43 kts | 69° |
| 2026-04-28 12:31 | 12.99150 | 80.17735 | 56 ft | 39 kts | 68° |
| 2026-04-28 12:32 | 12.99189 | 80.17755 | 58 ft | 4 kts | 283° |
| 2026-04-28 12:32 | 12.99203 | 80.17700 | 58 ft | 13 kts | 292° |
| 2026-04-28 12:32 | 12.99309 | 80.17695 | 60 ft | 22 kts | 47° |
| 2026-04-28 12:32 | 12.99384 | 80.17869 | 55 ft | 30 kts | 71° |
| 2026-04-28 12:33 | 12.99432 | 80.18076 | 58 ft | 25 kts | 118° |
| 2026-04-28 12:33 | 12.99365 | 80.18084 | 55 ft | 12 kts | 189° |
| 2026-04-28 12:33 | 12.99364 | 80.18142 | 61 ft | 11 kts | 58° |
| 2026-04-28 12:33 | 12.99356 | 80.18172 | 59 ft | 1 kts | 142° |
| 2026-04-28 12:34 | 12.99362 | 80.18200 | 61 ft | 14 kts | 71° |
| 2026-04-28 12:34 | 12.99409 | 80.18328 | 56 ft | 14 kts | 50° |
| 2026-04-28 12:34 | 12.99494 | 80.18369 | 57 ft | 15 kts | 40° |
| 2026-04-28 12:34 | 12.99576 | 80.18408 | 57 ft | 10 kts | 317° |
| 2026-04-28 12:35 | 12.99575 | 80.18386 | 59 ft | 3 kts | 250° |
| 2026-04-28 12:35 | 12.99562 | 80.18352 | 57 ft | 9 kts | 249° |
| 2026-04-28 12:35 | 12.99530 | 80.18264 | 57 ft | 18 kts | 249° |
| 2026-04-28 12:35 | 12.99476 | 80.18123 | 58 ft | 24 kts | 248° |
| 2026-04-28 12:36 | 12.99407 | 80.17940 | 58 ft | 31 kts | 248° |
| 2026-04-28 12:36 | 12.99279 | 80.17595 | 61 ft | 84 kts | 251° |
| 2026-04-28 12:36 | 12.98996 | 80.16842 | 53 ft | 140 kts | 249° |
| 2026-04-28 12:36 | 12.98595 | 80.15771 | 135 ft | 175 kts | 248° |
| 2026-04-28 12:37 | 12.98158 | 80.14587 | 583 ft | 181 kts | 244° |
| 2026-04-28 12:37 | 12.97722 | 80.13359 | 1124 ft | 187 kts | 245° |
| 2026-04-28 12:37 | 12.97284 | 80.12100 | 1865 ft | 183 kts | 250° |
| 2026-04-28 12:37 | 12.97288 | 80.10763 | 2270 ft | 204 kts | 286° |
| 2026-04-28 12:38 | 12.98112 | 80.09513 | 2500 ft | 225 kts | 317° |
| 2026-04-28 12:38 | 12.99348 | 80.08413 | 2819 ft | 246 kts | 314° |
| 2026-04-28 12:38 | 13.00462 | 80.06999 | 3209 ft | 265 kts | 299° |
| 2026-04-28 12:38 | 13.01222 | 80.05342 | 3803 ft | 273 kts | 289° |
| 2026-04-28 12:39 | 13.01801 | 80.03464 | 4635 ft | 275 kts | 285° |
| 2026-04-28 12:39 | 13.02285 | 80.01551 | 5383 ft | 280 kts | 285° |
| 2026-04-28 12:39 | 13.02737 | 79.99589 | 6112 ft | 286 kts | 285° |
| 2026-04-28 12:39 | 13.03193 | 79.97609 | 6789 ft | 292 kts | 286° |
| 2026-04-28 12:40 | 13.03683 | 79.95577 | 7489 ft | 296 kts | 286° |
| 2026-04-28 12:40 | 13.04197 | 79.93512 | 8164 ft | 302 kts | 287° |
| 2026-04-28 12:40 | 13.04725 | 79.91418 | 8895 ft | 305 kts | 287° |
| 2026-04-28 12:40 | 13.05255 | 79.89292 | 9621 ft | 310 kts | 286° |
| 2026-04-28 12:41 | 13.05789 | 79.87110 | 10070 ft | 324 kts | 286° |
| 2026-04-28 12:41 | 13.06355 | 79.84795 | 10271 ft | 345 kts | 286° |
| 2026-04-28 12:41 | 13.06957 | 79.82345 | 10580 ft | 360 kts | 286° |
| 2026-04-28 12:41 | 13.07567 | 79.79873 | 11223 ft | 363 kts | 286° |
| 2026-04-28 12:42 | 13.08200 | 79.77322 | 11937 ft | 366 kts | 286° |
| 2026-04-28 12:42 | 13.08821 | 79.74821 | 12598 ft | 369 kts | 286° |
| 2026-04-28 12:42 | 13.09455 | 79.72279 | 13292 ft | 371 kts | 286° |
| 2026-04-28 12:42 | 13.10091 | 79.69724 | 13910 ft | 374 kts | 285° |
| 2026-04-28 12:43 | 13.10739 | 79.67128 | 14525 ft | 377 kts | 285° |
| 2026-04-28 12:43 | 13.11392 | 79.64517 | 15141 ft | 377 kts | 285° |
| 2026-04-28 12:43 | 13.12030 | 79.61967 | 16284 ft | 359 kts | 285° |
| 2026-04-28 12:43 | 13.12637 | 79.59557 | 17586 ft | 339 kts | 284° |
| 2026-04-28 12:44 | 13.13213 | 79.57284 | 18740 ft | 319 kts | 284° |
| 2026-04-28 12:44 | 13.13758 | 79.55135 | 19614 ft | 309 kts | 283° |
| 2026-04-28 12:44 | 13.14279 | 79.53069 | 20367 ft | 294 kts | 283° |
| 2026-04-28 12:44 | 13.14776 | 79.51084 | 21109 ft | 284 kts | 283° |
| 2026-04-28 12:45 | 13.15268 | 79.49108 | 21457 ft | 287 kts | 283° |
| 2026-04-28 12:45 | 13.15761 | 79.47116 | 21799 ft | 290 kts | 283° |
| 2026-04-28 12:45 | 13.16264 | 79.45086 | 22011 ft | 299 kts | 283° |
| 2026-04-28 12:45 | 13.16784 | 79.42980 | 22108 ft | 310 kts | 283° |
| 2026-04-28 12:46 | 13.17325 | 79.40793 | 22211 ft | 322 kts | 283° |
| 2026-04-28 12:46 | 13.17887 | 79.38521 | 22320 ft | 335 kts | 283° |
| 2026-04-28 12:46 | 13.18471 | 79.36161 | 22332 ft | 346 kts | 283° |
| 2026-04-28 12:46 | 13.19056 | 79.33803 | 22281 ft | 346 kts | 283° |
| 2026-04-28 12:47 | 13.19650 | 79.31404 | 21983 ft | 347 kts | 283° |
| 2026-04-28 12:47 | 13.20257 | 79.28949 | 21779 ft | 365 kts | 283° |
| 2026-04-28 12:47 | 13.20896 | 79.26358 | 21718 ft | 384 kts | 283° |
| 2026-04-28 12:47 | 13.21564 | 79.23653 | 21727 ft | 400 kts | 283° |
| 2026-04-28 12:48 | 13.22252 | 79.20856 | 21743 ft | 413 kts | 283° |
| 2026-04-28 12:48 | 13.22970 | 79.17958 | 21732 ft | 425 kts | 283° |
| 2026-04-28 12:48 | 13.23681 | 79.15080 | 21726 ft | 438 kts | 283° |
| 2026-04-28 12:48 | 13.24452 | 79.11938 | 21737 ft | 451 kts | 283° |
| 2026-04-28 12:49 | 13.25232 | 79.08774 | 21750 ft | 463 kts | 283° |
| 2026-04-28 12:49 | 13.26020 | 79.05576 | 21744 ft | 473 kts | 283° |
| 2026-04-28 12:49 | 13.26832 | 79.02268 | 21769 ft | 483 kts | 283° |
| 2026-04-28 12:49 | 13.27659 | 78.98899 | 21760 ft | 491 kts | 283° |
| 2026-04-28 12:50 | 13.28391 | 78.95903 | 21759 ft | 497 kts | 282° |
| 2026-04-28 12:50 | 13.29039 | 78.92418 | 21772 ft | 496 kts | 276° |
| 2026-04-28 12:50 | 13.29295 | 78.88899 | 21771 ft | 495 kts | 269° |
| 2026-04-28 12:50 | 13.29157 | 78.85370 | 21776 ft | 494 kts | 264° |
| 2026-04-28 12:51 | 13.28861 | 78.81908 | 21792 ft | 494 kts | 263° |
| 2026-04-28 12:51 | 13.28547 | 78.78396 | 21791 ft | 494 kts | 263° |
| 2026-04-28 12:51 | 13.28245 | 78.74882 | 21799 ft | 494 kts | 264° |
| 2026-04-28 12:51 | 13.27963 | 78.71361 | 21811 ft | 494 kts | 264° |
| 2026-04-28 12:52 | 13.27696 | 78.67848 | 21814 ft | 494 kts | 264° |
| 2026-04-28 12:52 | 13.27438 | 78.64334 | 21820 ft | 494 kts | 264° |
| 2026-04-28 12:52 | 13.27184 | 78.60825 | 21815 ft | 494 kts | 265° |
| 2026-04-28 12:52 | 13.26933 | 78.57347 | 21832 ft | 494 kts | 264° |
| 2026-04-28 12:53 | 13.26680 | 78.53834 | 21830 ft | 494 kts | 265° |
| 2026-04-28 12:53 | 13.26425 | 78.50313 | 21840 ft | 494 kts | 265° |
| 2026-04-28 12:53 | 13.26296 | 78.46791 | 21847 ft | 495 kts | 270° |
| 2026-04-28 12:53 | 13.26419 | 78.44409 | 21838 ft | 495 kts | 275° |
| 2026-04-28 12:54 | 13.27085 | 78.39900 | 21750 ft | 470 kts | 279° |
| 2026-04-28 12:54 | 13.27654 | 78.36662 | 21588 ft | 452 kts | 279° |
| 2026-04-28 12:54 | 13.28205 | 78.33533 | 21324 ft | 439 kts | 279° |
| 2026-04-28 12:54 | 13.28727 | 78.30470 | 20743 ft | 434 kts | 279° |
| 2026-04-28 12:55 | 13.29228 | 78.27431 | 20143 ft | 430 kts | 278° |
| 2026-04-28 12:55 | 13.29712 | 78.24420 | 19567 ft | 426 kts | 278° |
| 2026-04-28 12:55 | 13.29926 | 78.23070 | 19277 ft | 422 kts | 278° |
| 2026-04-28 12:55 | 13.30268 | 78.20843 | 18662 ft | 418 kts | 277° |
| 2026-04-28 12:56 | 13.30503 | 78.17886 | 17779 ft | 413 kts | 271° |
| 2026-04-28 12:56 | 13.30546 | 78.14960 | 16879 ft | 408 kts | 270° |
| 2026-04-28 12:56 | 13.30566 | 78.12063 | 15977 ft | 403 kts | 270° |
| 2026-04-28 12:56 | 13.30586 | 78.09210 | 15317 ft | 394 kts | 270° |
| 2026-04-28 12:57 | 13.30611 | 78.06447 | 14837 ft | 381 kts | 270° |
| 2026-04-28 12:57 | 13.30641 | 78.03798 | 14317 ft | 372 kts | 270° |
| 2026-04-28 12:57 | 13.30675 | 78.01151 | 13812 ft | 371 kts | 270° |
| 2026-04-28 12:57 | 13.30710 | 77.98527 | 13302 ft | 368 kts | 270° |
| 2026-04-28 12:58 | 13.30747 | 77.95896 | 12829 ft | 365 kts | 270° |
| 2026-04-28 12:58 | 13.30783 | 77.93291 | 12346 ft | 363 kts | 270° |
| 2026-04-28 12:58 | 13.30820 | 77.90711 | 12023 ft | 362 kts | 270° |
| 2026-04-28 12:58 | 13.30856 | 77.88093 | 11919 ft | 369 kts | 270° |
| 2026-04-28 12:59 | 13.30892 | 77.85460 | 11919 ft | 368 kts | 270° |
| 2026-04-28 12:59 | 13.30931 | 77.82890 | 11929 ft | 368 kts | 270° |
| 2026-04-28 12:59 | 13.30968 | 77.80263 | 11915 ft | 368 kts | 270° |
| 2026-04-28 12:59 | 13.31002 | 77.77692 | 11907 ft | 368 kts | 270° |
| 2026-04-28 13:00 | 13.31038 | 77.75008 | 11744 ft | 369 kts | 270° |
| 2026-04-28 13:00 | 13.31062 | 77.72366 | 11263 ft | 372 kts | 270° |
| 2026-04-28 13:00 | 13.31081 | 77.69697 | 10559 ft | 377 kts | 270° |
| 2026-04-28 13:00 | 13.31099 | 77.66986 | 9891 ft | 380 kts | 270° |
| 2026-04-28 13:01 | 13.31118 | 77.64409 | 9576 ft | 372 kts | 270° |
| 2026-04-28 13:01 | 13.31141 | 77.61738 | 9433 ft | 357 kts | 270° |
| 2026-04-28 13:01 | 13.31156 | 77.59255 | 9298 ft | 343 kts | 270° |
| 2026-04-28 13:01 | 13.31171 | 77.56836 | 9168 ft | 330 kts | 270° |
| 2026-04-28 13:02 | 13.31185 | 77.54529 | 9041 ft | 318 kts | 270° |
| 2026-04-28 13:02 | 13.31198 | 77.52278 | 8764 ft | 312 kts | 270° |
| 2026-04-28 13:02 | 13.31211 | 77.50059 | 8408 ft | 310 kts | 270° |
| 2026-04-28 13:02 | 13.31222 | 77.47853 | 8049 ft | 308 kts | 271° |
| 2026-04-28 13:03 | 13.31232 | 77.45756 | 7712 ft | 306 kts | 271° |
| 2026-04-28 13:03 | 13.31038 | 77.43517 | 7383 ft | 303 kts | 253° |
| 2026-04-28 13:03 | 13.30052 | 77.41671 | 7092 ft | 297 kts | 226° |
| 2026-04-28 13:03 | 13.28388 | 77.40481 | 7037 ft | 296 kts | 199° |
| 2026-04-28 13:04 | 13.26364 | 77.40153 | 7034 ft | 296 kts | 173° |
| 2026-04-28 13:04 | 13.24542 | 77.40691 | 7022 ft | 291 kts | 148° |
| 2026-04-28 13:04 | 13.23057 | 77.42028 | 7029 ft | 283 kts | 122° |
| 2026-04-28 13:04 | 13.22057 | 77.43776 | 7037 ft | 284 kts | 115° |
| 2026-04-28 13:05 | 13.21212 | 77.45597 | 6998 ft | 283 kts | 107° |
| 2026-04-28 13:05 | 13.20851 | 77.47541 | 6725 ft | 282 kts | 92° |
| 2026-04-28 13:05 | 13.20786 | 77.49511 | 6487 ft | 277 kts | 88° |
| 2026-04-28 13:05 | 13.20771 | 77.51496 | 6157 ft | 279 kts | 89° |
| 2026-04-28 13:06 | 13.20757 | 77.53480 | 5813 ft | 278 kts | 88° |
| 2026-04-28 13:06 | 13.20750 | 77.55467 | 5451 ft | 278 kts | 88° |
| 2026-04-28 13:06 | 13.20741 | 77.57325 | 5118 ft | 272 kts | 87° |
| 2026-04-28 13:06 | 13.20736 | 77.59313 | 4779 ft | 264 kts | 88° |
| 2026-04-28 13:07 | 13.20730 | 77.61081 | 4460 ft | 256 kts | 87° |
| 2026-04-28 13:07 | 13.20721 | 77.62942 | 4128 ft | 249 kts | 88° |
| 2026-04-28 13:07 | 13.20715 | 77.64647 | 3812 ft | 228 kts | 87° |
| 2026-04-28 13:07 | 13.20713 | 77.65656 | 3632 ft | 212 kts | 88° |
| 2026-04-28 13:08 | 13.20709 | 77.67444 | 3348 ft | 194 kts | 90° |
| 2026-04-28 13:08 | 13.20704 | 77.68769 | 3098 ft | 178 kts | 91° |
| 2026-04-28 13:08 | 13.20697 | 77.69967 | 2998 ft | 156 kts | 90° |
| 2026-04-28 13:08 | 13.20688 | 77.70983 | 2956 ft | 113 kts | 91° |
| 2026-04-28 13:09 | 13.20698 | 77.71442 | 2946 ft | 43 kts | 91° |
| 2026-04-28 13:09 | 13.20691 | 77.71746 | 2940 ft | 43 kts | 90° |
| 2026-04-28 13:09 | 13.20691 | 77.72060 | 2933 ft | 44 kts | 90° |
| 2026-04-28 13:09 | 13.20653 | 77.72274 | 2929 ft | 14 kts | 184° |
| 2026-04-28 13:10 | 13.20552 | 77.72264 | 2929 ft | 15 kts | 191° |
| 2026-04-28 13:10 | 13.20525 | 77.72196 | 2930 ft | 12 kts | 267° |
| 2026-04-28 13:10 | 13.20518 | 77.72023 | 2930 ft | 37 kts | 270° |
| 2026-04-28 13:10 | 13.20520 | 77.71699 | 2934 ft | 46 kts | 271° |
| 2026-04-28 13:11 | 13.20517 | 77.71335 | 2945 ft | 54 kts | 272° |
| 2026-04-28 13:11 | 13.20532 | 77.70965 | 2956 ft | 50 kts | 270° |
| 2026-04-28 13:11 | 13.20517 | 77.70632 | 2953 ft | 45 kts | 272° |
| 2026-04-28 13:11 | 13.20501 | 77.70376 | 2970 ft | 19 kts | 204° |
| 2026-04-28 13:12 | 13.20391 | 77.70393 | 2970 ft | 15 kts | 194° |
| 2026-04-28 13:12 | 13.20288 | 77.70403 | 2969 ft | 14 kts | 141° |
| 2026-04-28 13:12 | 13.20266 | 77.70503 | 2967 ft | 16 kts | 89° |
| 2026-04-28 13:12 | 13.20266 | 77.70634 | 2960 ft | 20 kts | 90° |
| 2026-04-28 13:13 | 13.20265 | 77.70789 | 2955 ft | 23 kts | 90° |
| 2026-04-28 13:13 | 13.20264 | 77.70968 | 2957 ft | 27 kts | 91° |
| 2026-04-28 13:13 | 13.20262 | 77.71060 | 2955 ft | 1 kts | 95° |
| 2026-04-28 13:13 | 13.20247 | 77.71067 | 2948 ft | 4 kts | 176° |
| 2026-04-28 13:14 | 13.20219 | 77.71065 | 2949 ft | 0 kts | 203° |
| 2026-04-28 13:14 | 13.20211 | 77.71065 | 2952 ft | 4 kts | 186° |
| 2026-04-28 13:14 | 13.20169 | 77.71064 | 2954 ft | 0 kts | 180° |